createdAt,value
2023-05-14T00:00:39.679Z,6.29
2023-05-14T00:02:20.115Z,6.29
2023-05-14T00:04:00.651Z,6.28
2023-05-14T00:05:40.928Z,6.28
2023-05-14T00:07:21.299Z,6.32
2023-05-14T00:09:01.645Z,6.38
2023-05-14T00:10:42.009Z,6.32
2023-05-14T00:12:22.373Z,6.29
2023-05-14T00:14:02.801Z,6.21
2023-05-14T00:15:43.113Z,6.18
2023-05-14T00:17:23.638Z,6.17
2023-05-14T00:19:04.139Z,6.15
2023-05-14T00:20:44.469Z,6.15
2023-05-14T00:22:24.823Z,6.12
2023-05-14T00:24:05.066Z,6.1
2023-05-14T00:25:45.472Z,6.05
2023-05-14T00:27:25.839Z,6
2023-05-14T00:29:06.331Z,6
2023-05-14T00:30:46.706Z,6
2023-05-14T00:32:27.130Z,5.94
2023-05-14T00:34:07.494Z,5.98
2023-05-14T00:35:47.869Z,6
2023-05-14T00:37:28.282Z,5.96
2023-05-14T00:39:08.685Z,5.91
2023-05-14T00:40:48.978Z,5.91
2023-05-14T00:42:29.397Z,5.9
2023-05-14T00:44:09.825Z,5.81
2023-05-14T00:45:50.169Z,5.81
2023-05-14T00:47:30.595Z,5.83
2023-05-14T00:49:10.940Z,5.75
2023-05-14T00:50:51.411Z,5.7
2023-05-14T00:52:31.840Z,5.69
2023-05-14T00:54:12.275Z,5.7
2023-05-14T00:55:52.708Z,5.67
2023-05-14T00:57:33.126Z,5.63
2023-05-14T00:59:13.589Z,5.67
2023-05-14T01:00:53.960Z,5.66
2023-05-14T01:02:34.463Z,5.63
2023-05-14T01:04:14.746Z,5.62
2023-05-14T01:05:55.119Z,5.57
2023-05-14T01:07:35.550Z,5.57
2023-05-14T01:09:15.922Z,5.54
2023-05-14T01:10:56.319Z,5.52
2023-05-14T01:12:36.728Z,5.53
2023-05-14T01:14:17.093Z,5.47
2023-05-14T01:15:57.575Z,5.45
2023-05-14T01:17:38.082Z,5.45
2023-05-14T01:19:18.437Z,5.43
2023-05-14T01:20:58.772Z,5.42
2023-05-14T01:22:39.273Z,5.41
2023-05-14T01:24:19.669Z,5.36
2023-05-14T01:26:00.056Z,5.31
2023-05-14T01:27:40.536Z,5.26
2023-05-14T01:29:20.881Z,5.25
2023-05-14T01:31:01.227Z,5.23
2023-05-14T01:32:41.739Z,5.25
2023-05-14T01:34:22.058Z,5.26
2023-05-14T01:36:02.500Z,5.28
2023-05-14T01:37:42.872Z,5.23
2023-05-14T01:39:23.326Z,5.19
2023-05-14T01:41:03.680Z,5.16
2023-05-14T01:42:44.090Z,5.15
2023-05-14T01:44:24.521Z,5.15
2023-05-14T01:46:04.999Z,5.18
2023-05-14T01:47:45.308Z,5.18
2023-05-14T01:49:25.638Z,5.14
2023-05-14T01:51:06.067Z,5.12
2023-05-14T01:52:46.471Z,5.05
2023-05-14T01:54:26.900Z,5.01
2023-05-14T01:56:07.327Z,4.98
2023-05-14T01:57:47.692Z,5.02
2023-05-14T01:59:28.156Z,5.02
2023-05-14T02:01:08.667Z,5.01
2023-05-14T02:02:49.011Z,4.95
2023-05-14T02:04:29.377Z,4.91
2023-05-14T02:06:09.817Z,4.91
2023-05-14T02:09:30.588Z,4.92
2023-05-14T02:11:11.008Z,4.92
2023-05-14T02:12:51.408Z,4.87
2023-05-14T02:14:31.839Z,4.83
2023-05-14T02:16:12.291Z,4.85
2023-05-14T02:17:52.686Z,4.87
2023-05-14T02:19:33.013Z,4.87
2023-05-14T02:21:13.376Z,4.87
2023-05-14T02:22:53.788Z,4.85
2023-05-14T02:24:34.260Z,4.88
2023-05-14T02:26:14.680Z,4.84
2023-05-14T02:27:55.137Z,4.81
2023-05-14T02:29:35.593Z,4.8
2023-05-14T02:31:15.924Z,4.8
2023-05-14T02:32:56.325Z,4.78
2023-05-14T02:34:36.567Z,4.75
2023-05-14T02:36:16.968Z,4.74
2023-05-14T02:37:57.308Z,4.68
2023-05-14T02:39:37.762Z,4.68
2023-05-14T02:41:18.224Z,4.63
2023-05-14T02:42:58.561Z,4.63
2023-05-14T02:44:39.018Z,4.6
2023-05-14T02:46:19.418Z,4.63
2023-05-14T02:47:59.841Z,4.59
2023-05-14T02:49:40.183Z,4.57
2023-05-14T02:51:20.571Z,4.56
2023-05-14T02:53:01.048Z,4.6
2023-05-14T02:54:41.429Z,4.59
2023-05-14T02:56:21.901Z,4.56
2023-05-14T02:58:02.316Z,4.56
2023-05-14T02:59:42.728Z,4.59
2023-05-14T03:01:23.167Z,4.54
2023-05-14T03:03:03.522Z,4.5
2023-05-14T03:04:43.861Z,4.5
2023-05-14T03:06:24.327Z,4.53
2023-05-14T03:08:04.731Z,4.47
2023-05-14T03:09:45.162Z,4.46
2023-05-14T03:11:25.549Z,4.49
2023-05-14T03:13:05.950Z,4.46
2023-05-14T03:14:46.412Z,4.42
2023-05-14T03:16:26.882Z,4.44
2023-05-14T03:18:07.316Z,4.46
2023-05-14T03:19:47.702Z,4.46
2023-05-14T03:21:28.147Z,4.42
2023-05-14T03:23:08.652Z,4.39
2023-05-14T03:24:48.972Z,4.32
2023-05-14T03:26:29.405Z,4.3
2023-05-14T03:28:09.789Z,4.33
2023-05-14T03:29:50.201Z,4.35
2023-05-14T03:31:30.586Z,4.33
2023-05-14T03:33:10.986Z,4.37
2023-05-14T03:34:51.453Z,4.32
2023-05-14T03:36:31.913Z,4.3
2023-05-14T03:38:12.288Z,4.33
2023-05-14T03:39:52.701Z,4.3
2023-05-14T03:41:33.021Z,4.37
2023-05-14T03:43:13.389Z,4.39
2023-05-14T03:44:53.829Z,4.42
2023-05-14T03:46:34.213Z,4.4
2023-05-14T03:48:14.739Z,4.39
2023-05-14T03:49:55.120Z,4.42
2023-05-14T03:51:35.586Z,4.43
2023-05-14T03:53:15.962Z,4.4
2023-05-14T03:54:56.386Z,4.4
2023-05-14T03:56:36.802Z,4.44
2023-05-14T03:58:17.222Z,4.47
2023-05-14T03:59:57.699Z,4.42
2023-05-14T04:01:37.937Z,4.44
2023-05-14T04:03:18.276Z,4.46
2023-05-14T04:04:58.572Z,4.49
2023-05-14T04:06:38.976Z,4.54
2023-05-14T04:08:19.418Z,4.61
2023-05-14T04:10:01.165Z,4.61
2023-05-14T04:11:40.306Z,4.6
2023-05-14T04:13:20.743Z,4.63
2023-05-14T04:15:01.128Z,4.67
2023-05-14T04:16:41.577Z,4.71
2023-05-14T04:18:21.962Z,4.71
2023-05-14T04:20:02.392Z,4.75
2023-05-14T04:21:42.807Z,4.81
2023-05-14T04:23:23.295Z,4.84
2023-05-14T04:25:03.739Z,4.9
2023-05-14T04:26:44.241Z,4.91
2023-05-14T04:28:24.681Z,4.91
2023-05-14T04:30:05.080Z,4.91
2023-05-14T04:31:45.494Z,4.96
2023-05-14T04:33:25.647Z,5.02
2023-05-14T04:35:06.074Z,5.04
2023-05-14T04:36:46.476Z,5.11
2023-05-14T04:38:26.881Z,5.21
2023-05-14T04:40:07.303Z,5.25
2023-05-14T04:41:47.817Z,5.26
2023-05-14T04:43:28.238Z,5.28
2023-05-14T04:45:08.650Z,5.33
2023-05-14T04:46:49.138Z,5.41
2023-05-14T04:48:29.572Z,5.45
2023-05-14T04:50:09.900Z,5.54
2023-05-14T04:51:50.308Z,5.63
2023-05-14T04:53:30.703Z,5.7
2023-05-14T04:55:11.210Z,5.86
2023-05-14T04:56:51.637Z,6.01
2023-05-14T04:58:34.497Z,6.11
2023-05-14T05:00:12.553Z,6.28
2023-05-14T05:01:52.866Z,6.4
2023-05-14T05:03:33.238Z,6.5
2023-05-14T05:05:13.674Z,6.65
2023-05-14T05:06:54.022Z,6.72
2023-05-14T05:08:34.498Z,6.86
2023-05-14T05:10:14.871Z,6.98
2023-05-14T05:11:55.383Z,7.08
2023-05-14T05:13:35.807Z,7.17
2023-05-14T05:15:16.273Z,7.25
2023-05-14T05:16:56.655Z,7.35
2023-05-14T05:18:37.117Z,7.44
2023-05-14T05:20:17.445Z,7.52
2023-05-14T05:21:57.880Z,7.56
2023-05-14T05:23:38.331Z,7.65
2023-05-14T05:25:18.714Z,7.75
2023-05-14T05:26:59.133Z,7.82
2023-05-14T05:28:39.586Z,7.97
2023-05-14T05:30:19.970Z,8.08
2023-05-14T05:32:00.444Z,8.2
2023-05-14T05:33:40.641Z,8.28
2023-05-14T05:35:21.118Z,8.4
2023-05-14T05:37:01.529Z,8.48
2023-05-14T05:38:41.995Z,8.62
2023-05-14T05:40:22.572Z,8.71
2023-05-14T05:42:02.918Z,8.8
2023-05-14T05:43:43.357Z,8.9
2023-05-14T05:45:23.812Z,9.04
2023-05-14T05:47:04.399Z,9.23
2023-05-14T05:48:44.585Z,9.35
2023-05-14T05:50:25.186Z,9.48
2023-05-14T05:52:05.395Z,9.54
2023-05-14T05:53:45.858Z,9.61
2023-05-14T05:55:26.259Z,9.74
2023-05-14T05:57:06.628Z,9.77
2023-05-14T05:58:47.136Z,9.98
2023-05-14T06:00:27.573Z,10.19
2023-05-14T06:02:07.899Z,10.4
2023-05-14T06:03:48.789Z,10.65
2023-05-14T06:05:28.590Z,10.88
2023-05-14T06:07:08.968Z,10.94
2023-05-14T06:08:49.503Z,11.21
2023-05-14T06:10:29.906Z,11.43
2023-05-14T06:12:10.306Z,11.7
2023-05-14T06:13:50.696Z,11.88
2023-05-14T06:15:31.121Z,12.05
2023-05-14T06:17:11.483Z,12.19
2023-05-14T06:18:51.841Z,12.33
2023-05-14T06:20:32.026Z,12.53
2023-05-14T06:22:12.440Z,12.72
2023-05-14T06:23:52.993Z,12.84
2023-05-14T06:25:33.334Z,12.97
2023-05-14T06:27:13.714Z,13.01
2023-05-14T06:28:54.179Z,13.08
2023-05-14T06:30:34.638Z,13.11
2023-05-14T06:32:15.120Z,13.14
2023-05-14T06:33:55.513Z,13.24
2023-05-14T06:35:36.140Z,13.24
2023-05-14T06:37:16.496Z,13.24
2023-05-14T06:38:57.031Z,13.29
2023-05-14T06:40:37.458Z,13.51
2023-05-14T06:42:17.932Z,13.56
2023-05-14T06:43:58.326Z,13.76
2023-05-14T06:45:38.752Z,14.06
2023-05-14T06:47:19.108Z,14.2
2023-05-14T06:48:59.809Z,14.4
2023-05-14T06:50:39.906Z,14.67
2023-05-14T06:52:20.312Z,14.74
2023-05-14T06:54:00.730Z,14.95
2023-05-14T06:55:41.159Z,15.17
2023-05-14T06:57:21.655Z,15.33
2023-05-14T06:59:02.064Z,15.46
2023-05-14T07:00:42.495Z,15.74
2023-05-14T07:02:22.841Z,16.04
2023-05-14T07:04:03.164Z,16.25
2023-05-14T07:05:43.539Z,16.23
2023-05-14T07:07:23.931Z,16.13
2023-05-14T07:09:04.418Z,16.11
2023-05-14T07:10:44.881Z,16.15
2023-05-14T07:12:25.310Z,16.17
2023-05-14T07:14:05.803Z,16.22
2023-05-14T07:15:46.283Z,16.34
2023-05-14T07:17:26.858Z,16.53
2023-05-14T07:19:07.227Z,16.64
2023-05-14T07:20:47.542Z,16.66
2023-05-14T07:22:27.915Z,16.74
2023-05-14T07:24:08.414Z,16.95
2023-05-14T07:25:48.776Z,17.15
2023-05-14T07:27:29.165Z,17.22
2023-05-14T07:29:09.653Z,17.38
2023-05-14T07:30:50.044Z,17.53
2023-05-14T07:32:30.319Z,17.72
2023-05-14T07:34:10.665Z,17.66
2023-05-14T07:35:51.123Z,17.72
2023-05-14T07:37:31.513Z,17.77
2023-05-14T07:39:11.993Z,18.05
2023-05-14T07:40:52.384Z,18.01
2023-05-14T07:42:36.596Z,18.21
2023-05-14T07:44:13.231Z,18.6
2023-05-14T07:45:53.711Z,18.66
2023-05-14T07:47:34.295Z,18.8
2023-05-14T07:49:14.674Z,18.92
2023-05-14T07:50:55.044Z,19.24
2023-05-14T07:52:35.452Z,19.65
2023-05-14T07:54:15.885Z,19.97
2023-05-14T07:55:56.306Z,20.16
2023-05-14T07:57:36.766Z,20.38
2023-05-14T07:59:17.164Z,20.54
2023-05-14T08:00:57.570Z,20.82
2023-05-14T08:02:38.081Z,21.06
2023-05-14T08:04:18.456Z,21.03
2023-05-14T08:05:58.840Z,21.15
2023-05-14T08:07:39.323Z,21.18
2023-05-14T08:09:19.723Z,21.27
2023-05-14T08:11:00.242Z,21.18
2023-05-14T08:12:40.502Z,21.15
2023-05-14T08:14:20.894Z,21.01
2023-05-14T08:16:01.288Z,20.82
2023-05-14T08:17:41.712Z,20.64
2023-05-14T08:19:22.144Z,20.4
2023-05-14T08:21:03.730Z,20.24
2023-05-14T08:22:43.039Z,20.19
2023-05-14T08:24:23.452Z,20.27
2023-05-14T08:26:03.900Z,20.23
2023-05-14T08:27:44.249Z,20.19
2023-05-14T08:29:24.691Z,20.19
2023-05-14T08:31:05.163Z,20.38
2023-05-14T08:32:45.568Z,20.54
2023-05-14T08:34:25.985Z,20.59
2023-05-14T08:36:06.334Z,20.68
2023-05-14T08:37:46.724Z,20.78
2023-05-14T08:39:27.099Z,20.88
2023-05-14T08:41:07.567Z,21.02
2023-05-14T08:42:47.997Z,21.15
2023-05-14T08:44:28.458Z,21.27
2023-05-14T08:46:08.934Z,21.33
2023-05-14T08:47:49.363Z,21.32
2023-05-14T08:49:29.764Z,21.56
2023-05-14T08:51:10.192Z,21.67
2023-05-14T08:52:50.570Z,21.84
2023-05-14T08:54:31.071Z,22.25
2023-05-14T08:56:11.448Z,22.6
2023-05-14T08:57:51.909Z,23.04
2023-05-14T08:59:32.365Z,23.03
2023-05-14T09:01:12.821Z,23.4
2023-05-14T09:02:53.229Z,23.58
2023-05-14T09:04:33.565Z,23.37
2023-05-14T09:06:14.053Z,23.59
2023-05-14T09:07:54.469Z,24
2023-05-14T09:09:34.816Z,24.55
2023-05-14T09:11:15.308Z,24.69
2023-05-14T09:12:55.679Z,24.75
2023-05-14T09:14:36.166Z,24.99
2023-05-14T09:16:16.611Z,25.3
2023-05-14T09:17:57.026Z,25.57
2023-05-14T09:19:37.333Z,25.68
2023-05-14T09:21:17.786Z,25.4
2023-05-14T09:22:58.197Z,24.89
2023-05-14T09:24:38.593Z,24.57
2023-05-14T09:26:18.934Z,24.32
2023-05-14T09:27:59.406Z,23.97
2023-05-14T09:29:39.819Z,23.72
2023-05-14T09:31:20.234Z,23.61
2023-05-14T09:33:00.761Z,23.8
2023-05-14T09:34:41.094Z,23.65
2023-05-14T09:36:21.567Z,23.48
2023-05-14T09:38:01.979Z,23.76
2023-05-14T09:39:42.383Z,23.86
2023-05-14T09:41:22.718Z,24.28
2023-05-14T09:43:03.160Z,24.55
2023-05-14T09:44:43.468Z,24.72
2023-05-14T09:46:23.811Z,25.03
2023-05-14T09:48:04.309Z,25.46
2023-05-14T09:49:44.738Z,25.89
2023-05-14T09:51:25.144Z,25.71
2023-05-14T09:53:05.549Z,25.5
2023-05-14T09:54:46.021Z,25.29
2023-05-14T09:56:26.400Z,25
2023-05-14T09:58:06.780Z,24.85
2023-05-14T09:59:47.160Z,24.64
2023-05-14T10:01:27.587Z,24.28
2023-05-14T10:03:08.113Z,24.06
2023-05-14T10:04:48.671Z,23.89
2023-05-14T10:06:28.945Z,23.77
2023-05-14T10:08:09.334Z,23.46
2023-05-14T10:09:49.678Z,23.18
2023-05-14T10:11:30.110Z,23.58
2023-05-14T10:13:10.555Z,23.96
2023-05-14T10:14:51.026Z,24.44
2023-05-14T10:16:31.565Z,24.68
2023-05-14T10:18:12.037Z,24.78
2023-05-14T10:19:52.275Z,24.93
2023-05-14T10:21:32.773Z,24.98
2023-05-14T10:23:13.119Z,25.4
2023-05-14T10:24:53.526Z,25.53
2023-05-14T10:26:34.002Z,25.98
2023-05-14T10:28:14.467Z,25.95
2023-05-14T10:29:54.864Z,25.7
2023-05-14T10:31:35.337Z,25.88
2023-05-14T10:33:15.694Z,26.01
2023-05-14T10:34:56.069Z,26.59
2023-05-14T10:36:36.534Z,26.52
2023-05-14T10:38:16.954Z,26.56
2023-05-14T10:39:57.401Z,26.33
2023-05-14T10:41:37.788Z,26.31
2023-05-14T10:43:18.095Z,26.13
2023-05-14T10:44:58.709Z,25.98
2023-05-14T10:46:39.056Z,25.99
2023-05-14T10:48:19.461Z,25.99
2023-05-14T10:49:59.821Z,25.88
2023-05-14T10:51:40.411Z,25.92
2023-05-14T10:53:20.786Z,25.64
2023-05-14T10:55:03.506Z,25.58
2023-05-14T10:56:41.659Z,25.6
2023-05-14T10:58:21.983Z,25.37
2023-05-14T11:00:02.455Z,25.6
2023-05-14T11:01:42.854Z,25.27
2023-05-14T11:03:23.306Z,25.05
2023-05-14T11:05:03.782Z,25.27
2023-05-14T11:06:44.175Z,25.44
2023-05-14T11:08:27.013Z,25.48
2023-05-14T11:10:05.004Z,25.56
2023-05-14T11:11:45.250Z,25.89
2023-05-14T11:13:25.618Z,26.15
2023-05-14T11:15:06.054Z,26.39
2023-05-14T11:16:46.593Z,26.59
2023-05-14T11:18:26.994Z,26.84
2023-05-14T11:20:07.384Z,26.76
2023-05-14T11:21:47.785Z,26.62
2023-05-14T11:23:28.165Z,26.36
2023-05-14T11:25:08.531Z,26.7
2023-05-14T11:26:48.947Z,26.64
2023-05-14T11:28:29.381Z,26.6
2023-05-14T11:30:09.702Z,26.63
2023-05-14T11:31:50.200Z,26.49
2023-05-14T11:33:30.532Z,26.26
2023-05-14T11:35:10.992Z,26.15
2023-05-14T11:36:51.339Z,26.42
2023-05-14T11:38:31.699Z,26.81
2023-05-14T11:40:12.153Z,27.19
2023-05-14T11:41:52.727Z,27.29
2023-05-14T11:43:32.868Z,27.39
2023-05-14T11:45:13.247Z,27.41
2023-05-14T11:46:53.768Z,27.28
2023-05-14T11:48:34.194Z,27.12
2023-05-14T11:50:14.617Z,27.08
2023-05-14T11:51:55.027Z,27.14
2023-05-14T11:53:35.546Z,27.41
2023-05-14T11:55:15.955Z,27.58
2023-05-14T11:56:56.353Z,27.67
2023-05-14T11:58:36.776Z,27.39
2023-05-14T12:00:20.291Z,27.19
2023-05-14T12:01:57.637Z,26.8
2023-05-14T12:03:38.192Z,26.47
2023-05-14T12:05:18.506Z,26.29
2023-05-14T12:06:58.883Z,26.08
2023-05-14T12:08:39.280Z,25.77
2023-05-14T12:10:19.730Z,25.36
2023-05-14T12:12:00.058Z,25.47
2023-05-14T12:13:40.403Z,25.57
2023-05-14T12:15:20.785Z,25.4
2023-05-14T12:17:01.291Z,24.85
2023-05-14T12:18:41.818Z,24.54
2023-05-14T12:20:22.311Z,24.16
2023-05-14T12:22:02.699Z,23.65
2023-05-14T12:23:43.044Z,23.14
2023-05-14T12:25:23.452Z,22.76
2023-05-14T12:27:03.840Z,22.53
2023-05-14T12:28:44.155Z,22.12
2023-05-14T12:30:24.712Z,21.78
2023-05-14T12:32:05.117Z,21.42
2023-05-14T12:33:45.459Z,21.1
2023-05-14T12:35:25.992Z,20.74
2023-05-14T12:37:06.228Z,20.46
2023-05-14T12:38:46.688Z,20.24
2023-05-14T12:40:27.217Z,20.01
2023-05-14T12:42:07.625Z,19.89
2023-05-14T12:43:47.936Z,19.79
2023-05-14T12:45:28.347Z,19.65
2023-05-14T12:47:08.873Z,19.47
2023-05-14T12:48:51.188Z,19.34
2023-05-14T12:50:29.796Z,19.2
2023-05-14T12:52:22.710Z,19.03
2023-05-14T12:53:50.607Z,18.96
2023-05-14T12:55:31.038Z,18.87
2023-05-14T12:57:11.514Z,18.84
2023-05-14T12:58:51.991Z,18.86
2023-05-14T13:00:32.455Z,18.86
2023-05-14T13:02:13.032Z,18.9
2023-05-14T13:03:53.295Z,19.03
2023-05-14T13:05:33.576Z,19.25
2023-05-14T13:07:13.998Z,19.55
2023-05-14T13:08:54.367Z,20.01
2023-05-14T13:10:34.767Z,20.2
2023-05-14T13:12:15.135Z,20.15
2023-05-14T13:13:55.552Z,20.03
2023-05-14T13:15:35.979Z,19.89
2023-05-14T13:17:16.384Z,19.73
2023-05-14T13:18:56.774Z,19.5
2023-05-14T13:20:37.244Z,19.48
2023-05-14T13:22:17.681Z,19.37
2023-05-14T13:23:58.154Z,19.21
2023-05-14T13:25:38.578Z,18.99
2023-05-14T13:27:19.043Z,18.82
2023-05-14T13:28:59.479Z,18.66
2023-05-14T13:30:39.930Z,18.46
2023-05-14T13:32:20.309Z,18.32
2023-05-14T13:34:00.759Z,18.24
2023-05-14T13:35:41.201Z,18.08
2023-05-14T13:37:21.639Z,17.97
2023-05-14T13:39:01.960Z,17.9
2023-05-14T13:40:42.430Z,17.93
2023-05-14T13:42:22.778Z,17.97
2023-05-14T13:44:03.197Z,17.93
2023-05-14T13:45:43.606Z,17.74
2023-05-14T13:47:24.136Z,17.72
2023-05-14T13:49:04.511Z,17.67
2023-05-14T13:50:44.942Z,17.67
2023-05-14T13:52:25.351Z,17.67
2023-05-14T13:54:05.803Z,17.74
2023-05-14T13:55:47.880Z,17.84
2023-05-14T13:57:26.384Z,17.83
2023-05-14T13:59:06.764Z,17.86
2023-05-14T14:00:47.176Z,17.81
2023-05-14T14:02:27.576Z,17.86
2023-05-14T14:04:07.882Z,17.93
2023-05-14T14:05:48.235Z,17.98
2023-05-14T14:07:31.667Z,17.98
2023-05-14T14:09:09.055Z,17.96
2023-05-14T14:10:49.477Z,18.04
2023-05-14T14:12:30.020Z,18.27
2023-05-14T14:14:10.137Z,18.55
2023-05-14T14:15:50.596Z,18.86
2023-05-14T14:17:31.027Z,19.11
2023-05-14T14:19:11.523Z,19.38
2023-05-14T14:20:51.883Z,19.62
2023-05-14T14:22:32.337Z,19.95
2023-05-14T14:24:12.791Z,20.2
2023-05-14T14:25:53.195Z,20.34
2023-05-14T14:27:33.519Z,20.57
2023-05-14T14:29:13.789Z,20.64
2023-05-14T14:30:54.213Z,20.64
2023-05-14T14:32:34.707Z,20.7
2023-05-14T14:34:15.108Z,20.82
2023-05-14T14:35:55.527Z,20.94
2023-05-14T14:37:35.911Z,21.09
2023-05-14T14:39:16.346Z,21.34
2023-05-14T14:40:59.928Z,21.43
2023-05-14T14:42:37.152Z,21.37
2023-05-14T14:44:17.544Z,21.23
2023-05-14T14:45:58.031Z,21.25
2023-05-14T14:47:38.456Z,21.25
2023-05-14T14:49:18.789Z,21.22
2023-05-14T14:50:59.265Z,21.05
2023-05-14T14:52:39.710Z,20.95
2023-05-14T14:54:20.119Z,20.94
2023-05-14T14:56:00.664Z,20.96
2023-05-14T14:57:41.014Z,20.88
2023-05-14T14:59:22.023Z,20.85
2023-05-14T15:01:02.586Z,20.82
2023-05-14T15:02:43.022Z,20.74
2023-05-14T15:04:23.380Z,20.68
2023-05-14T15:06:03.779Z,20.64
2023-05-14T15:07:44.160Z,20.59
2023-05-14T15:09:24.574Z,20.59
2023-05-14T15:11:04.909Z,20.64
2023-05-14T15:12:45.354Z,20.48
2023-05-14T15:14:25.764Z,20.46
2023-05-14T15:16:06.204Z,20.47
2023-05-14T15:17:46.757Z,20.44
2023-05-14T15:19:30.161Z,20.48
2023-05-14T15:21:07.548Z,20.44
2023-05-14T15:22:47.937Z,20.44
2023-05-14T15:24:28.344Z,20.46
2023-05-14T15:26:08.704Z,20.44
2023-05-14T15:27:49.032Z,20.48
2023-05-14T15:29:29.508Z,20.47
2023-05-14T15:31:09.957Z,20.43
2023-05-14T15:32:50.318Z,20.38
2023-05-14T15:34:30.767Z,20.37
2023-05-14T15:36:11.226Z,20.48
2023-05-14T15:37:51.689Z,20.63
2023-05-14T15:39:32.108Z,20.99
2023-05-14T15:41:12.513Z,21.37
2023-05-14T15:42:52.939Z,21.76
2023-05-14T15:44:33.430Z,22.15
2023-05-14T15:46:13.900Z,22.55
2023-05-14T15:47:54.354Z,22.69
2023-05-14T15:49:34.798Z,22.93
2023-05-14T15:51:15.216Z,23.21
2023-05-14T15:52:55.669Z,23.4
2023-05-14T15:54:36.053Z,23.56
2023-05-14T15:56:16.476Z,23.65
2023-05-14T15:57:56.988Z,23.8
2023-05-14T15:59:37.420Z,23.95
2023-05-14T16:01:17.826Z,23.93
2023-05-14T16:02:58.302Z,23.87
2023-05-14T16:04:38.679Z,23.75
2023-05-14T16:06:19.132Z,23.63
2023-05-14T16:07:59.518Z,23.56
2023-05-14T16:09:39.981Z,23.63
2023-05-14T16:11:20.418Z,23.8
2023-05-14T16:13:00.911Z,23.96
2023-05-14T16:14:42.007Z,24.06
2023-05-14T16:16:21.799Z,24.06
2023-05-14T16:18:02.238Z,23.99
2023-05-14T16:19:42.645Z,23.97
2023-05-14T16:21:23.205Z,23.93
2023-05-14T16:23:03.694Z,23.73
2023-05-14T16:24:44.235Z,23.4
2023-05-14T16:26:24.577Z,23.08
2023-05-14T16:28:05.018Z,22.87
2023-05-14T16:29:45.556Z,22.59
2023-05-14T16:31:25.946Z,22.45
2023-05-14T16:33:06.338Z,22.34
2023-05-14T16:34:46.684Z,22.38
2023-05-14T16:36:27.082Z,22.35
2023-05-14T16:38:07.504Z,22.22
2023-05-14T16:39:47.922Z,22.02
2023-05-14T16:41:28.390Z,21.9
2023-05-14T16:43:08.763Z,21.6
2023-05-14T16:44:49.210Z,21.46
2023-05-14T16:46:29.700Z,21.29
2023-05-14T16:48:10.153Z,21.16
2023-05-14T16:49:50.435Z,21.09
2023-05-14T16:51:30.875Z,20.96
2023-05-14T16:53:11.274Z,20.88
2023-05-14T16:54:51.662Z,20.75
2023-05-14T16:56:32.040Z,20.61
2023-05-14T16:58:12.655Z,20.47
2023-05-14T16:59:52.778Z,20.26
2023-05-14T17:01:33.124Z,20.16
2023-05-14T17:03:13.492Z,20
2023-05-14T17:04:53.810Z,19.88
2023-05-14T17:06:34.240Z,19.69
2023-05-14T17:08:14.653Z,19.58
2023-05-14T17:09:55.094Z,19.44
2023-05-14T17:11:35.529Z,19.34
2023-05-14T17:13:15.898Z,19.25
2023-05-14T17:14:56.405Z,19.14
2023-05-14T17:16:36.822Z,19.02
2023-05-14T17:18:17.333Z,18.94
2023-05-14T17:19:57.990Z,18.82
2023-05-14T17:21:38.159Z,18.69
2023-05-14T17:23:18.571Z,18.63
2023-05-14T17:24:59.054Z,18.55
2023-05-14T17:26:39.483Z,18.48
2023-05-14T17:28:19.959Z,18.35
2023-05-14T17:30:00.483Z,18.28
2023-05-14T17:31:40.939Z,18.27
2023-05-14T17:33:21.437Z,18.18
2023-05-14T17:35:01.782Z,18.12
2023-05-14T17:36:42.147Z,18.03
2023-05-14T17:38:22.579Z,17.98
2023-05-14T17:40:03.052Z,17.88
2023-05-14T17:41:43.434Z,17.86
2023-05-14T17:43:26.935Z,17.79
2023-05-14T17:45:04.286Z,17.73
2023-05-14T17:46:44.797Z,17.69
2023-05-14T17:48:25.083Z,17.62
2023-05-14T17:50:05.514Z,17.59
2023-05-14T17:51:45.962Z,17.52
2023-05-14T17:53:26.424Z,17.42
2023-05-14T17:55:06.754Z,17.38
2023-05-14T17:56:47.197Z,17.32
2023-05-14T17:58:27.566Z,17.23
2023-05-14T18:00:08.112Z,17.15
2023-05-14T18:01:48.490Z,17.07
2023-05-14T18:03:29.200Z,16.96
2023-05-14T18:05:09.411Z,16.87
2023-05-14T18:08:33.328Z,16.64
2023-05-14T18:10:10.733Z,16.6
2023-05-14T18:11:51.173Z,16.47
2023-05-14T18:13:31.564Z,16.3
2023-05-14T18:15:12.025Z,16.2
2023-05-14T18:16:55.587Z,16.06
2023-05-14T18:18:32.885Z,15.98
2023-05-14T18:20:13.282Z,15.85
2023-05-14T18:21:56.749Z,15.75
2023-05-14T18:23:34.132Z,15.65
2023-05-14T18:25:14.529Z,15.54
2023-05-14T18:26:54.931Z,15.41
2023-05-14T18:28:35.357Z,15.31
2023-05-14T18:30:18.847Z,15.25
2023-05-14T18:31:56.231Z,15.14
2023-05-14T18:33:36.766Z,15.09
2023-05-14T18:35:17.289Z,14.96
2023-05-14T18:36:57.705Z,14.83
2023-05-14T18:38:38.119Z,14.75
2023-05-14T18:40:25.648Z,14.62
2023-05-14T18:41:59.034Z,14.53
2023-05-14T18:43:39.432Z,14.41
2023-05-14T18:45:19.881Z,14.31
2023-05-14T18:47:00.392Z,14.25
2023-05-14T18:48:40.832Z,14.19
2023-05-14T18:50:21.188Z,14.09
2023-05-14T18:52:01.663Z,13.96
2023-05-14T18:53:45.044Z,13.93
2023-05-14T18:55:22.723Z,13.89
2023-05-14T18:57:02.852Z,13.79
2023-05-14T18:58:43.232Z,13.7
2023-05-14T19:00:23.586Z,13.62
2023-05-14T19:02:04.177Z,13.56
2023-05-14T19:03:47.534Z,13.52
2023-05-14T19:05:24.963Z,13.48
2023-05-14T19:07:05.153Z,13.38
2023-05-14T19:08:45.590Z,13.29
2023-05-14T19:10:25.999Z,13.24
2023-05-14T19:12:06.478Z,13.19
2023-05-14T19:13:46.907Z,13.18
2023-05-14T19:15:27.283Z,13.06
2023-05-14T19:17:07.676Z,13.01
2023-05-14T19:18:48.107Z,12.97
2023-05-14T19:20:28.415Z,12.93
2023-05-14T19:22:08.838Z,12.91
2023-05-14T19:23:49.362Z,12.9
2023-05-14T19:25:29.696Z,12.84
2023-05-14T19:27:10.132Z,12.83
2023-05-14T19:28:50.542Z,12.79
2023-05-14T19:30:31.015Z,12.75
2023-05-14T19:32:11.435Z,12.73
2023-05-14T19:33:51.793Z,12.72
2023-05-14T19:35:32.270Z,12.67
2023-05-14T19:37:12.714Z,12.62
2023-05-14T19:38:53.164Z,12.55
2023-05-14T19:40:33.655Z,12.48
2023-05-14T19:42:14.169Z,12.39
2023-05-14T19:43:54.525Z,12.35
2023-05-14T19:45:35.037Z,12.36
2023-05-14T19:47:15.535Z,12.31
2023-05-14T19:48:55.866Z,12.24
2023-05-14T19:50:36.343Z,12.18
2023-05-14T19:52:16.694Z,12.11
2023-05-14T19:53:57.119Z,12.09
2023-05-14T19:55:37.464Z,12.04
2023-05-14T19:57:17.942Z,12.02
2023-05-14T19:58:58.323Z,11.94
2023-05-14T20:00:38.681Z,11.85
2023-05-14T20:02:20.117Z,11.81
2023-05-14T20:03:59.428Z,11.73
2023-05-14T20:05:39.797Z,11.69
2023-05-14T20:07:20.220Z,11.57
2023-05-14T20:09:00.640Z,11.46
2023-05-14T20:10:41.017Z,11.37
2023-05-14T20:12:21.480Z,11.34
2023-05-14T20:14:01.870Z,11.27
2023-05-14T20:15:42.251Z,11.26
2023-05-14T20:17:22.789Z,11.15
2023-05-14T20:19:03.229Z,11.05
2023-05-14T20:20:43.543Z,11.02
2023-05-14T20:22:23.976Z,10.95
2023-05-14T20:24:04.450Z,10.91
2023-05-14T20:25:44.863Z,10.82
2023-05-14T20:27:25.329Z,10.74
2023-05-14T20:29:05.781Z,10.64
2023-05-14T20:30:46.135Z,10.54
2023-05-14T20:32:26.547Z,10.46
2023-05-14T20:34:06.961Z,10.37
2023-05-14T20:35:47.393Z,10.35
2023-05-14T20:37:27.829Z,10.3
2023-05-14T20:39:08.250Z,10.19
2023-05-14T20:40:48.659Z,10.13
2023-05-14T20:42:29.049Z,10.05
2023-05-14T20:44:09.376Z,10.02
2023-05-14T20:45:49.774Z,9.98
2023-05-14T20:47:30.102Z,9.93
2023-05-14T20:49:10.433Z,9.82
2023-05-14T20:50:50.904Z,9.82
2023-05-14T20:52:31.357Z,9.75
2023-05-14T20:54:11.777Z,9.69
2023-05-14T20:55:52.193Z,9.59
2023-05-14T20:57:32.549Z,9.55
2023-05-14T20:59:12.958Z,9.51
2023-05-14T21:00:53.391Z,9.45
2023-05-14T21:02:33.897Z,9.42
2023-05-14T21:04:14.529Z,9.35
2023-05-14T21:05:54.683Z,9.29
2023-05-14T21:07:35.142Z,9.21
2023-05-14T21:09:15.553Z,9.16
2023-05-14T21:10:55.999Z,9.07
2023-05-14T21:12:36.366Z,8.99
2023-05-14T21:14:16.835Z,8.99
2023-05-14T21:15:57.280Z,9
2023-05-14T21:17:37.802Z,8.98
2023-05-14T21:19:18.175Z,8.93
2023-05-14T21:20:58.543Z,8.89
2023-05-14T21:22:38.986Z,8.84
2023-05-14T21:24:19.443Z,8.79
2023-05-14T21:25:59.739Z,8.78
2023-05-14T21:27:40.305Z,8.73
2023-05-14T21:29:20.666Z,8.72
2023-05-14T21:31:01.083Z,8.72
2023-05-14T21:32:41.497Z,8.69
2023-05-14T21:34:21.946Z,8.61
2023-05-14T21:36:02.286Z,8.62
2023-05-14T21:37:42.690Z,8.55
2023-05-14T21:39:23.033Z,8.49
2023-05-14T21:41:03.370Z,8.47
2023-05-14T21:42:43.810Z,8.41
2023-05-14T21:44:24.131Z,8.44
2023-05-14T21:46:04.525Z,8.37
2023-05-14T21:47:45.011Z,8.34
2023-05-14T21:49:25.340Z,8.28
2023-05-14T21:51:05.807Z,8.33
2023-05-14T21:52:46.225Z,8.25
2023-05-14T21:54:26.606Z,8.21